sensor_id;sensor_type;location;lat;lon;timestamp;P1;durP1;ratioP1;P2;durP2;ratioP2
31378;SDS011;61664;48.112;11.662;2023-03-01T00:01:38;17.17;;;12.38;;
31378;SDS011;61664;48.112;11.662;2023-03-01T00:04:06;17.88;;;12.15;;
31378;SDS011;61664;48.112;11.662;2023-03-01T00:06:33;17.85;;;11.45;;
31378;SDS011;61664;48.112;11.662;2023-03-01T00:08:59;19.38;;;12.57;;
31378;SDS011;61664;48.112;11.662;2023-03-01T00:11:27;18.27;;;12.27;;
31378;SDS011;61664;48.112;11.662;2023-03-01T00:13:58;17.92;;;11.93;;
31378;SDS011;61664;48.112;11.662;2023-03-01T00:16:31;17.48;;;11.77;;
31378;SDS011;61664;48.112;11.662;2023-03-01T00:19:07;16.17;;;11.90;;
31378;SDS011;61664;48.112;11.662;2023-03-01T00:21:38;19.13;;;12.27;;
31378;SDS011;61664;48.112;11.662;2023-03-01T00:24:06;16.63;;;12.30;;
31378;SDS011;61664;48.112;11.662;2023-03-01T00:26:34;18.65;;;13.23;;
31378;SDS011;61664;48.112;11.662;2023-03-01T00:29:01;16.17;;;11.93;;
31378;SDS011;61664;48.112;11.662;2023-03-01T00:31:29;17.35;;;11.43;;
31378;SDS011;61664;48.112;11.662;2023-03-01T00:33:59;18.35;;;11.85;;
31378;SDS011;61664;48.112;11.662;2023-03-01T00:36:30;18.05;;;12.27;;
31378;SDS011;61664;48.112;11.662;2023-03-01T00:39:02;15.52;;;10.40;;
31378;SDS011;61664;48.112;11.662;2023-03-01T00:41:31;16.40;;;11.98;;
31378;SDS011;61664;48.112;11.662;2023-03-01T00:44:00;20.27;;;12.50;;
31378;SDS011;61664;48.112;11.662;2023-03-01T00:46:27;16.88;;;12.30;;
31378;SDS011;61664;48.112;11.662;2023-03-01T00:48:56;16.03;;;11.13;;
31378;SDS011;61664;48.112;11.662;2023-03-01T00:51:25;16.10;;;11.73;;
31378;SDS011;61664;48.112;11.662;2023-03-01T00:53:54;20.30;;;12.18;;
31378;SDS011;61664;48.112;11.662;2023-03-01T00:56:23;18.90;;;12.77;;
31378;SDS011;61664;48.112;11.662;2023-03-01T00:58:51;18.27;;;12.02;;
31378;SDS011;61664;48.112;11.662;2023-03-01T01:01:19;16.83;;;12.23;;
31378;SDS011;61664;48.112;11.662;2023-03-01T01:03:54;17.60;;;11.93;;
31378;SDS011;61664;48.112;11.662;2023-03-01T01:06:35;16.08;;;11.52;;
31378;SDS011;61664;48.112;11.662;2023-03-01T01:09:09;17.77;;;11.73;;
31378;SDS011;61664;48.112;11.662;2023-03-01T01:11:46;17.67;;;12.52;;
31378;SDS011;61664;48.112;11.662;2023-03-01T01:14:16;16.70;;;11.70;;
31378;SDS011;61664;48.112;11.662;2023-03-01T01:16:44;17.40;;;12.25;;
31378;SDS011;61664;48.112;11.662;2023-03-01T01:19:11;18.73;;;12.30;;
31378;SDS011;61664;48.112;11.662;2023-03-01T01:21:39;18.98;;;12.40;;
31378;SDS011;61664;48.112;11.662;2023-03-01T01:24:09;19.83;;;12.37;;
31378;SDS011;61664;48.112;11.662;2023-03-01T01:26:37;17.02;;;11.90;;
31378;SDS011;61664;48.112;11.662;2023-03-01T01:29:04;14.15;;;10.88;;
31378;SDS011;61664;48.112;11.662;2023-03-01T01:31:32;17.52;;;11.88;;
31378;SDS011;61664;48.112;11.662;2023-03-01T01:34:01;17.05;;;12.52;;
31378;SDS011;61664;48.112;11.662;2023-03-01T01:36:31;16.87;;;11.73;;
31378;SDS011;61664;48.112;11.662;2023-03-01T01:38:59;16.42;;;11.55;;
31378;SDS011;61664;48.112;11.662;2023-03-01T01:41:27;20.73;;;12.40;;
31378;SDS011;61664;48.112;11.662;2023-03-01T01:46:54;13.18;;;10.00;;
31378;SDS011;61664;48.112;11.662;2023-03-01T01:52:10;15.57;;;11.25;;
31378;SDS011;61664;48.112;11.662;2023-03-01T01:57:20;16.45;;;11.65;;
31378;SDS011;61664;48.112;11.662;2023-03-01T01:59:54;16.75;;;11.75;;
31378;SDS011;61664;48.112;11.662;2023-03-01T02:02:26;15.20;;;11.25;;
31378;SDS011;61664;48.112;11.662;2023-03-01T02:04:55;18.85;;;12.05;;
31378;SDS011;61664;48.112;11.662;2023-03-01T02:07:36;16.15;;;10.95;;
31378;SDS011;61664;48.112;11.662;2023-03-01T02:10:06;17.08;;;11.90;;
31378;SDS011;61664;48.112;11.662;2023-03-01T02:12:34;19.42;;;12.88;;
31378;SDS011;61664;48.112;11.662;2023-03-01T02:15:04;16.75;;;11.85;;
31378;SDS011;61664;48.112;11.662;2023-03-01T02:17:31;16.45;;;12.10;;
31378;SDS011;61664;48.112;11.662;2023-03-01T02:22:38;19.05;;;12.95;;
31378;SDS011;61664;48.112;11.662;2023-03-01T02:30:46;16.92;;;11.73;;
31378;SDS011;61664;48.112;11.662;2023-03-01T02:33:35;15.65;;;11.38;;
31378;SDS011;61664;48.112;11.662;2023-03-01T02:36:06;19.00;;;12.32;;
31378;SDS011;61664;48.112;11.662;2023-03-01T02:38:40;15.10;;;10.55;;
31378;SDS011;61664;48.112;11.662;2023-03-01T02:41:09;18.80;;;12.20;;
31378;SDS011;61664;48.112;11.662;2023-03-01T02:43:41;16.75;;;11.93;;
31378;SDS011;61664;48.112;11.662;2023-03-01T02:46:13;20.02;;;11.90;;
31378;SDS011;61664;48.112;11.662;2023-03-01T02:55:06;16.35;;;11.15;;
31378;SDS011;61664;48.112;11.662;2023-03-01T02:57:38;15.90;;;11.52;;
31378;SDS011;61664;48.112;11.662;2023-03-01T03:00:12;15.63;;;11.20;;
31378;SDS011;61664;48.112;11.662;2023-03-01T03:02:48;16.80;;;11.25;;
31378;SDS011;61664;48.112;11.662;2023-03-01T03:05:19;20.02;;;13.07;;
31378;SDS011;61664;48.112;11.662;2023-03-01T03:07:55;15.98;;;11.38;;
31378;SDS011;61664;48.112;11.662;2023-03-01T03:10:23;16.17;;;12.40;;
31378;SDS011;61664;48.112;11.662;2023-03-01T03:12:58;15.38;;;11.95;;
31378;SDS011;61664;48.112;11.662;2023-03-01T03:15:29;17.20;;;12.07;;
31378;SDS011;61664;48.112;11.662;2023-03-01T03:17:57;15.93;;;11.13;;
31378;SDS011;61664;48.112;11.662;2023-03-01T03:20:26;16.90;;;12.18;;
31378;SDS011;61664;48.112;11.662;2023-03-01T03:22:55;15.88;;;12.13;;
31378;SDS011;61664;48.112;11.662;2023-03-01T03:25:25;17.63;;;12.15;;
31378;SDS011;61664;48.112;11.662;2023-03-01T03:27:54;16.40;;;12.15;;
31378;SDS011;61664;48.112;11.662;2023-03-01T03:30:32;17.10;;;12.07;;
31378;SDS011;61664;48.112;11.662;2023-03-01T03:32:59;19.10;;;13.32;;
31378;SDS011;61664;48.112;11.662;2023-03-01T03:35:27;17.60;;;12.05;;
31378;SDS011;61664;48.112;11.662;2023-03-01T03:37:58;19.33;;;12.50;;
31378;SDS011;61664;48.112;11.662;2023-03-01T03:40:31;16.58;;;12.10;;
31378;SDS011;61664;48.112;11.662;2023-03-01T03:43:04;17.35;;;12.07;;
31378;SDS011;61664;48.112;11.662;2023-03-01T03:45:41;16.98;;;12.13;;
31378;SDS011;61664;48.112;11.662;2023-03-01T03:48:10;17.88;;;12.68;;
31378;SDS011;61664;48.112;11.662;2023-03-01T03:50:37;19.15;;;13.75;;
31378;SDS011;61664;48.112;11.662;2023-03-01T03:53:07;18.20;;;11.80;;
31378;SDS011;61664;48.112;11.662;2023-03-01T03:55:37;18.05;;;12.40;;
31378;SDS011;61664;48.112;11.662;2023-03-01T03:58:06;17.75;;;12.25;;
31378;SDS011;61664;48.112;11.662;2023-03-01T04:03:05;13.75;;;9.75;;
31378;SDS011;61664;48.112;11.662;2023-03-01T04:05:33;16.35;;;11.32;;
31378;SDS011;61664;48.112;11.662;2023-03-01T04:08:02;19.83;;;12.27;;
31378;SDS011;61664;48.112;11.662;2023-03-01T04:10:30;19.30;;;13.23;;
31378;SDS011;61664;48.112;11.662;2023-03-01T04:13:02;20.25;;;12.55;;
31378;SDS011;61664;48.112;11.662;2023-03-01T04:15:29;17.45;;;12.38;;
31378;SDS011;61664;48.112;11.662;2023-03-01T04:17:58;19.38;;;13.43;;
31378;SDS011;61664;48.112;11.662;2023-03-01T04:20:27;16.75;;;12.43;;
31378;SDS011;61664;48.112;11.662;2023-03-01T04:25:34;18.42;;;12.63;;
31378;SDS011;61664;48.112;11.662;2023-03-01T04:28:01;20.15;;;11.90;;
31378;SDS011;61664;48.112;11.662;2023-03-01T04:30:28;19.40;;;12.95;;
31378;SDS011;61664;48.112;11.662;2023-03-01T04:32:55;17.33;;;11.90;;
31378;SDS011;61664;48.112;11.662;2023-03-01T04:35:22;17.30;;;12.05;;
31378;SDS011;61664;48.112;11.662;2023-03-01T04:37:49;18.98;;;12.80;;
31378;SDS011;61664;48.112;11.662;2023-03-01T04:40:16;19.27;;;12.68;;
31378;SDS011;61664;48.112;11.662;2023-03-01T04:42:43;19.55;;;12.73;;
31378;SDS011;61664;48.112;11.662;2023-03-01T04:45:10;18.52;;;12.82;;
31378;SDS011;61664;48.112;11.662;2023-03-01T04:47:40;17.70;;;12.93;;
31378;SDS011;61664;48.112;11.662;2023-03-01T04:50:11;17.60;;;11.90;;
31378;SDS011;61664;48.112;11.662;2023-03-01T04:52:40;18.80;;;12.93;;
31378;SDS011;61664;48.112;11.662;2023-03-01T04:55:07;17.60;;;11.88;;
31378;SDS011;61664;48.112;11.662;2023-03-01T04:57:35;19.13;;;12.43;;
31378;SDS011;61664;48.112;11.662;2023-03-01T05:00:03;19.25;;;12.20;;
31378;SDS011;61664;48.112;11.662;2023-03-01T05:02:56;19.08;;;12.38;;
31378;SDS011;61664;48.112;11.662;2023-03-01T05:05:27;20.35;;;12.50;;
31378;SDS011;61664;48.112;11.662;2023-03-01T05:08:00;18.35;;;11.95;;
31378;SDS011;61664;48.112;11.662;2023-03-01T05:10:31;19.80;;;13.15;;
31378;SDS011;61664;48.112;11.662;2023-03-01T05:13:01;17.35;;;11.50;;
31378;SDS011;61664;48.112;11.662;2023-03-01T05:15:30;16.25;;;11.82;;
31378;SDS011;61664;48.112;11.662;2023-03-01T05:17:58;19.27;;;12.15;;
31378;SDS011;61664;48.112;11.662;2023-03-01T05:20:27;17.63;;;11.98;;
31378;SDS011;61664;48.112;11.662;2023-03-01T05:22:58;18.92;;;12.63;;
31378;SDS011;61664;48.112;11.662;2023-03-01T05:25:26;16.88;;;12.05;;
31378;SDS011;61664;48.112;11.662;2023-03-01T05:28:01;19.50;;;12.18;;
31378;SDS011;61664;48.112;11.662;2023-03-01T05:30:31;17.38;;;12.63;;
31378;SDS011;61664;48.112;11.662;2023-03-01T05:32:59;20.92;;;13.30;;
31378;SDS011;61664;48.112;11.662;2023-03-01T05:35:27;17.63;;;12.27;;
31378;SDS011;61664;48.112;11.662;2023-03-01T05:37:55;19.33;;;13.05;;
31378;SDS011;61664;48.112;11.662;2023-03-01T05:40:23;19.60;;;13.60;;
31378;SDS011;61664;48.112;11.662;2023-03-01T05:42:54;19.67;;;12.77;;
31378;SDS011;61664;48.112;11.662;2023-03-01T05:45:23;20.92;;;12.68;;
31378;SDS011;61664;48.112;11.662;2023-03-01T05:47:53;18.80;;;13.00;;
31378;SDS011;61664;48.112;11.662;2023-03-01T05:50:25;19.95;;;12.55;;
31378;SDS011;61664;48.112;11.662;2023-03-01T05:52:59;19.83;;;12.80;;
31378;SDS011;61664;48.112;11.662;2023-03-01T05:55:32;17.45;;;12.40;;
31378;SDS011;61664;48.112;11.662;2023-03-01T05:57:59;21.25;;;13.95;;
31378;SDS011;61664;48.112;11.662;2023-03-01T06:00:32;19.77;;;12.50;;
31378;SDS011;61664;48.112;11.662;2023-03-01T06:02:59;19.52;;;13.38;;
31378;SDS011;61664;48.112;11.662;2023-03-01T06:05:27;19.70;;;12.82;;
31378;SDS011;61664;48.112;11.662;2023-03-01T06:07:55;22.50;;;13.98;;
31378;SDS011;61664;48.112;11.662;2023-03-01T06:10:25;18.67;;;12.43;;
31378;SDS011;61664;48.112;11.662;2023-03-01T06:12:52;19.83;;;12.63;;
31378;SDS011;61664;48.112;11.662;2023-03-01T06:15:20;20.60;;;12.95;;
31378;SDS011;61664;48.112;11.662;2023-03-01T06:17:48;22.70;;;13.90;;
31378;SDS011;61664;48.112;11.662;2023-03-01T06:22:45;22.55;;;13.10;;
31378;SDS011;61664;48.112;11.662;2023-03-01T06:25:14;18.15;;;12.82;;
31378;SDS011;61664;48.112;11.662;2023-03-01T06:27:45;18.67;;;12.50;;
31378;SDS011;61664;48.112;11.662;2023-03-01T06:30:13;19.35;;;12.95;;
31378;SDS011;61664;48.112;11.662;2023-03-01T06:32:43;20.48;;;13.48;;
31378;SDS011;61664;48.112;11.662;2023-03-01T06:35:10;22.17;;;13.45;;
31378;SDS011;61664;48.112;11.662;2023-03-01T06:37:40;21.10;;;13.88;;
31378;SDS011;61664;48.112;11.662;2023-03-01T06:40:08;22.65;;;13.57;;
31378;SDS011;61664;48.112;11.662;2023-03-01T06:42:38;18.58;;;13.10;;
31378;SDS011;61664;48.112;11.662;2023-03-01T06:45:08;18.10;;;12.73;;
31378;SDS011;61664;48.112;11.662;2023-03-01T06:47:36;20.88;;;13.20;;
31378;SDS011;61664;48.112;11.662;2023-03-01T06:50:03;18.08;;;12.95;;
31378;SDS011;61664;48.112;11.662;2023-03-01T06:52:30;19.27;;;12.93;;
31378;SDS011;61664;48.112;11.662;2023-03-01T06:54:57;19.45;;;12.75;;
31378;SDS011;61664;48.112;11.662;2023-03-01T06:57:25;18.77;;;13.70;;
31378;SDS011;61664;48.112;11.662;2023-03-01T06:59:52;23.55;;;13.45;;
31378;SDS011;61664;48.112;11.662;2023-03-01T07:02:19;18.80;;;12.85;;
31378;SDS011;61664;48.112;11.662;2023-03-01T07:04:46;21.67;;;13.55;;
31378;SDS011;61664;48.112;11.662;2023-03-01T07:07:16;20.67;;;12.48;;
31378;SDS011;61664;48.112;11.662;2023-03-01T07:09:45;19.48;;;12.68;;
31378;SDS011;61664;48.112;11.662;2023-03-01T07:12:14;21.33;;;13.45;;
31378;SDS011;61664;48.112;11.662;2023-03-01T07:14:43;18.63;;;12.95;;
31378;SDS011;61664;48.112;11.662;2023-03-01T07:17:10;19.73;;;13.05;;
31378;SDS011;61664;48.112;11.662;2023-03-01T07:19:37;21.77;;;13.70;;
31378;SDS011;61664;48.112;11.662;2023-03-01T07:22:04;19.98;;;12.48;;
31378;SDS011;61664;48.112;11.662;2023-03-01T07:24:33;21.77;;;13.40;;
31378;SDS011;61664;48.112;11.662;2023-03-01T07:27:00;22.13;;;13.15;;
31378;SDS011;61664;48.112;11.662;2023-03-01T07:29:27;18.88;;;12.95;;
31378;SDS011;61664;48.112;11.662;2023-03-01T07:31:55;22.35;;;13.48;;
31378;SDS011;61664;48.112;11.662;2023-03-01T07:34:22;24.08;;;14.05;;
31378;SDS011;61664;48.112;11.662;2023-03-01T07:36:48;19.38;;;12.95;;
31378;SDS011;61664;48.112;11.662;2023-03-01T07:39:15;20.40;;;13.35;;
31378;SDS011;61664;48.112;11.662;2023-03-01T07:41:44;21.52;;;13.57;;
31378;SDS011;61664;48.112;11.662;2023-03-01T07:44:12;23.73;;;14.05;;
31378;SDS011;61664;48.112;11.662;2023-03-01T07:46:38;20.63;;;13.23;;
31378;SDS011;61664;48.112;11.662;2023-03-01T07:49:05;19.10;;;12.82;;
31378;SDS011;61664;48.112;11.662;2023-03-01T07:51:32;24.45;;;14.23;;
31378;SDS011;61664;48.112;11.662;2023-03-01T07:53:59;20.67;;;13.57;;
31378;SDS011;61664;48.112;11.662;2023-03-01T07:56:26;20.75;;;13.10;;
31378;SDS011;61664;48.112;11.662;2023-03-01T07:58:53;23.73;;;14.68;;
31378;SDS011;61664;48.112;11.662;2023-03-01T08:01:21;23.52;;;13.23;;
31378;SDS011;61664;48.112;11.662;2023-03-01T08:03:48;24.17;;;14.55;;
31378;SDS011;61664;48.112;11.662;2023-03-01T08:06:15;19.65;;;13.38;;
31378;SDS011;61664;48.112;11.662;2023-03-01T08:08:43;36.25;;;14.77;;
31378;SDS011;61664;48.112;11.662;2023-03-01T08:11:12;20.40;;;13.55;;
31378;SDS011;61664;48.112;11.662;2023-03-01T08:13:42;22.13;;;14.03;;
31378;SDS011;61664;48.112;11.662;2023-03-01T08:16:11;24.60;;;13.38;;
31378;SDS011;61664;48.112;11.662;2023-03-01T08:18:41;21.92;;;13.43;;
31378;SDS011;61664;48.112;11.662;2023-03-01T08:21:10;21.23;;;13.77;;
31378;SDS011;61664;48.112;11.662;2023-03-01T08:23:40;20.00;;;13.10;;
31378;SDS011;61664;48.112;11.662;2023-03-01T08:26:09;20.17;;;12.75;;
31378;SDS011;61664;48.112;11.662;2023-03-01T08:28:55;23.95;;;13.52;;
31378;SDS011;61664;48.112;11.662;2023-03-01T08:31:24;21.63;;;13.32;;
31378;SDS011;61664;48.112;11.662;2023-03-01T08:33:59;21.02;;;13.30;;
31378;SDS011;61664;48.112;11.662;2023-03-01T08:36:29;23.80;;;15.07;;
31378;SDS011;61664;48.112;11.662;2023-03-01T08:39:01;21.20;;;13.10;;
31378;SDS011;61664;48.112;11.662;2023-03-01T08:41:29;23.63;;;14.02;;
31378;SDS011;61664;48.112;11.662;2023-03-01T08:43:56;22.65;;;14.32;;
31378;SDS011;61664;48.112;11.662;2023-03-01T08:46:36;22.25;;;14.68;;
31378;SDS011;61664;48.112;11.662;2023-03-01T08:49:08;23.75;;;14.88;;
31378;SDS011;61664;48.112;11.662;2023-03-01T08:51:39;22.38;;;14.90;;
31378;SDS011;61664;48.112;11.662;2023-03-01T08:54:09;21.40;;;13.50;;
31378;SDS011;61664;48.112;11.662;2023-03-01T08:56:41;18.30;;;13.15;;
31378;SDS011;61664;48.112;11.662;2023-03-01T08:59:09;20.75;;;13.50;;
31378;SDS011;61664;48.112;11.662;2023-03-01T09:01:37;20.25;;;13.27;;
31378;SDS011;61664;48.112;11.662;2023-03-01T09:04:06;25.50;;;14.43;;
31378;SDS011;61664;48.112;11.662;2023-03-01T09:06:33;23.83;;;14.52;;
31378;SDS011;61664;48.112;11.662;2023-03-01T09:09:02;20.50;;;13.18;;
31378;SDS011;61664;48.112;11.662;2023-03-01T09:11:31;23.93;;;15.10;;
31378;SDS011;61664;48.112;11.662;2023-03-01T09:13:59;20.60;;;13.90;;
31378;SDS011;61664;48.112;11.662;2023-03-01T09:16:26;21.88;;;14.23;;
31378;SDS011;61664;48.112;11.662;2023-03-01T09:18:54;20.10;;;13.90;;
31378;SDS011;61664;48.112;11.662;2023-03-01T09:21:22;24.70;;;15.02;;
31378;SDS011;61664;48.112;11.662;2023-03-01T09:24:05;19.67;;;12.85;;
31378;SDS011;61664;48.112;11.662;2023-03-01T09:26:39;21.33;;;14.05;;
31378;SDS011;61664;48.112;11.662;2023-03-01T09:29:06;22.65;;;13.73;;
31378;SDS011;61664;48.112;11.662;2023-03-01T09:31:35;25.58;;;14.70;;
31378;SDS011;61664;48.112;11.662;2023-03-01T09:34:02;24.20;;;15.02;;
31378;SDS011;61664;48.112;11.662;2023-03-01T09:36:29;21.15;;;13.82;;
31378;SDS011;61664;48.112;11.662;2023-03-01T09:38:58;21.27;;;14.40;;
31378;SDS011;61664;48.112;11.662;2023-03-01T09:41:36;20.50;;;14.15;;
31378;SDS011;61664;48.112;11.662;2023-03-01T09:47:01;23.47;;;14.53;;
31378;SDS011;61664;48.112;11.662;2023-03-01T09:49:35;22.42;;;14.13;;
31378;SDS011;61664;48.112;11.662;2023-03-01T09:54:48;21.92;;;13.27;;
31378;SDS011;61664;48.112;11.662;2023-03-01T09:57:33;22.25;;;13.90;;
31378;SDS011;61664;48.112;11.662;2023-03-01T10:00:13;19.58;;;13.23;;
31378;SDS011;61664;48.112;11.662;2023-03-01T10:03:10;24.88;;;14.55;;
31378;SDS011;61664;48.112;11.662;2023-03-01T10:06:10;24.33;;;13.48;;
31378;SDS011;61664;48.112;11.662;2023-03-01T10:09:02;20.15;;;12.43;;
31378;SDS011;61664;48.112;11.662;2023-03-01T10:11:47;20.73;;;13.80;;
31378;SDS011;61664;48.112;11.662;2023-03-01T10:19:54;21.55;;;14.45;;
31378;SDS011;61664;48.112;11.662;2023-03-01T10:22:36;17.48;;;13.02;;
31378;SDS011;61664;48.112;11.662;2023-03-01T10:25:04;19.67;;;14.00;;
31378;SDS011;61664;48.112;11.662;2023-03-01T10:30:34;22.33;;;14.48;;
31378;SDS011;61664;48.112;11.662;2023-03-01T10:33:13;21.33;;;14.88;;
31378;SDS011;61664;48.112;11.662;2023-03-01T10:35:47;20.90;;;15.23;;
31378;SDS011;61664;48.112;11.662;2023-03-01T10:38:15;25.25;;;15.98;;
31378;SDS011;61664;48.112;11.662;2023-03-01T10:43:26;27.90;;;16.60;;
31378;SDS011;61664;48.112;11.662;2023-03-01T10:49:10;21.65;;;15.30;;
31378;SDS011;61664;48.112;11.662;2023-03-01T10:51:45;18.67;;;14.07;;
31378;SDS011;61664;48.112;11.662;2023-03-01T10:56:54;19.80;;;13.10;;
31378;SDS011;61664;48.112;11.662;2023-03-01T11:05:34;19.67;;;13.95;;
31378;SDS011;61664;48.112;11.662;2023-03-01T11:07:51;17.88;;;13.13;;
31378;SDS011;61664;48.112;11.662;2023-03-01T11:10:22;15.65;;;12.68;;
31378;SDS011;61664;48.112;11.662;2023-03-01T11:13:19;16.67;;;13.23;;
31378;SDS011;61664;48.112;11.662;2023-03-01T11:16:00;16.08;;;12.60;;
31378;SDS011;61664;48.112;11.662;2023-03-01T11:18:37;15.38;;;12.25;;
31378;SDS011;61664;48.112;11.662;2023-03-01T11:21:14;19.35;;;12.73;;
31378;SDS011;61664;48.112;11.662;2023-03-01T11:23:42;17.42;;;13.30;;
31378;SDS011;61664;48.112;11.662;2023-03-01T11:26:13;16.23;;;13.50;;
31378;SDS011;61664;48.112;11.662;2023-03-01T11:28:43;16.58;;;12.77;;
31378;SDS011;61664;48.112;11.662;2023-03-01T11:31:17;19.50;;;14.23;;
31378;SDS011;61664;48.112;11.662;2023-03-01T11:36:48;19.77;;;14.25;;
31378;SDS011;61664;48.112;11.662;2023-03-01T11:39:30;18.17;;;13.95;;
31378;SDS011;61664;48.112;11.662;2023-03-01T11:45:10;21.52;;;14.38;;
31378;SDS011;61664;48.112;11.662;2023-03-01T11:56:01;19.40;;;14.23;;
31378;SDS011;61664;48.112;11.662;2023-03-01T11:59:00;19.65;;;14.70;;
31378;SDS011;61664;48.112;11.662;2023-03-01T12:07:00;18.48;;;14.80;;
31378;SDS011;61664;48.112;11.662;2023-03-01T12:09:59;22.00;;;14.70;;
31378;SDS011;61664;48.112;11.662;2023-03-01T12:16:40;18.73;;;13.98;;
31378;SDS011;61664;48.112;11.662;2023-03-01T12:26:15;17.70;;;13.38;;
31378;SDS011;61664;48.112;11.662;2023-03-01T12:29:08;19.35;;;14.15;;
31378;SDS011;61664;48.112;11.662;2023-03-01T12:46:35;19.17;;;13.52;;
31378;SDS011;61664;48.112;11.662;2023-03-01T12:49:43;25.20;;;16.15;;
31378;SDS011;61664;48.112;11.662;2023-03-01T12:52:21;20.10;;;15.05;;
31378;SDS011;61664;48.112;11.662;2023-03-01T12:55:06;22.75;;;15.80;;
31378;SDS011;61664;48.112;11.662;2023-03-01T13:00:37;22.48;;;15.57;;
31378;SDS011;61664;48.112;11.662;2023-03-01T13:06:24;22.15;;;16.13;;
31378;SDS011;61664;48.112;11.662;2023-03-01T13:17:57;21.80;;;16.00;;
31378;SDS011;61664;48.112;11.662;2023-03-01T13:38:57;21.73;;;15.32;;
31378;SDS011;61664;48.112;11.662;2023-03-01T13:46:56;22.27;;;16.02;;
31378;SDS011;61664;48.112;11.662;2023-03-01T13:57:41;19.88;;;14.43;;
31378;SDS011;61664;48.112;11.662;2023-03-01T14:00:29;21.35;;;15.18;;
31378;SDS011;61664;48.112;11.662;2023-03-01T14:03:10;21.50;;;14.63;;
31378;SDS011;61664;48.112;11.662;2023-03-01T14:05:40;20.42;;;14.65;;
31378;SDS011;61664;48.112;11.662;2023-03-01T14:19:48;21.35;;;14.23;;
31378;SDS011;61664;48.112;11.662;2023-03-01T14:22:24;19.05;;;14.57;;
31378;SDS011;61664;48.112;11.662;2023-03-01T14:25:00;20.25;;;14.95;;
31378;SDS011;61664;48.112;11.662;2023-03-01T14:27:42;23.83;;;14.88;;
31378;SDS011;61664;48.112;11.662;2023-03-01T14:30:23;22.88;;;15.07;;
31378;SDS011;61664;48.112;11.662;2023-03-01T14:32:58;22.13;;;14.52;;
31378;SDS011;61664;48.112;11.662;2023-03-01T14:35:33;19.35;;;14.98;;
31378;SDS011;61664;48.112;11.662;2023-03-01T14:38:02;20.25;;;15.18;;
31378;SDS011;61664;48.112;11.662;2023-03-01T14:40:31;18.30;;;14.25;;
31378;SDS011;61664;48.112;11.662;2023-03-01T14:43:02;16.08;;;13.23;;
31378;SDS011;61664;48.112;11.662;2023-03-01T14:45:38;17.75;;;13.77;;
31378;SDS011;61664;48.112;11.662;2023-03-01T14:48:05;19.35;;;14.80;;
31378;SDS011;61664;48.112;11.662;2023-03-01T14:50:34;14.98;;;12.27;;
31378;SDS011;61664;48.112;11.662;2023-03-01T14:53:14;15.32;;;12.10;;
31378;SDS011;61664;48.112;11.662;2023-03-01T14:55:55;14.88;;;12.48;;
31378;SDS011;61664;48.112;11.662;2023-03-01T14:58:28;13.80;;;12.30;;
31378;SDS011;61664;48.112;11.662;2023-03-01T15:01:00;15.57;;;12.55;;
31378;SDS011;61664;48.112;11.662;2023-03-01T15:03:33;14.98;;;11.50;;
31378;SDS011;61664;48.112;11.662;2023-03-01T15:06:10;16.98;;;13.00;;
31378;SDS011;61664;48.112;11.662;2023-03-01T15:11:20;12.90;;;10.85;;
31378;SDS011;61664;48.112;11.662;2023-03-01T15:13:56;15.98;;;12.35;;
31378;SDS011;61664;48.112;11.662;2023-03-01T15:16:31;18.75;;;13.02;;
31378;SDS011;61664;48.112;11.662;2023-03-01T15:19:01;14.63;;;11.38;;
31378;SDS011;61664;48.112;11.662;2023-03-01T15:21:33;13.40;;;11.95;;
31378;SDS011;61664;48.112;11.662;2023-03-01T15:26:53;13.15;;;11.27;;
31378;SDS011;61664;48.112;11.662;2023-03-01T15:29:33;16.88;;;12.13;;
31378;SDS011;61664;48.112;11.662;2023-03-01T15:32:22;13.25;;;11.32;;
31378;SDS011;61664;48.112;11.662;2023-03-01T15:35:01;13.95;;;11.60;;
31378;SDS011;61664;48.112;11.662;2023-03-01T15:38:34;14.07;;;11.65;;
31378;SDS011;61664;48.112;11.662;2023-03-01T15:41:30;11.88;;;10.38;;
31378;SDS011;61664;48.112;11.662;2023-03-01T15:44:00;13.52;;;10.88;;
31378;SDS011;61664;48.112;11.662;2023-03-01T15:46:55;14.50;;;11.35;;
31378;SDS011;61664;48.112;11.662;2023-03-01T15:52:24;12.52;;;10.85;;
31378;SDS011;61664;48.112;11.662;2023-03-01T15:55:06;12.55;;;10.35;;
31378;SDS011;61664;48.112;11.662;2023-03-01T15:57:49;17.83;;;11.88;;
31378;SDS011;61664;48.112;11.662;2023-03-01T16:00:26;11.15;;;9.70;;
31378;SDS011;61664;48.112;11.662;2023-03-01T16:02:54;12.23;;;10.82;;
31378;SDS011;61664;48.112;11.662;2023-03-01T16:05:29;13.65;;;11.65;;
31378;SDS011;61664;48.112;11.662;2023-03-01T16:08:01;15.13;;;11.05;;
31378;SDS011;61664;48.112;11.662;2023-03-01T16:10:28;14.00;;;10.70;;
31378;SDS011;61664;48.112;11.662;2023-03-01T16:12:57;12.93;;;10.98;;
31378;SDS011;61664;48.112;11.662;2023-03-01T16:17:58;12.48;;;10.43;;
31378;SDS011;61664;48.112;11.662;2023-03-01T16:20:25;14.70;;;10.98;;
31378;SDS011;61664;48.112;11.662;2023-03-01T16:23:03;14.75;;;11.13;;
31378;SDS011;61664;48.112;11.662;2023-03-01T16:25:33;14.50;;;11.15;;
31378;SDS011;61664;48.112;11.662;2023-03-01T16:28:02;15.35;;;11.75;;
31378;SDS011;61664;48.112;11.662;2023-03-01T16:30:35;17.48;;;10.52;;
31378;SDS011;61664;48.112;11.662;2023-03-01T16:33:06;16.88;;;11.48;;
31378;SDS011;61664;48.112;11.662;2023-03-01T16:35:54;17.85;;;11.95;;
31378;SDS011;61664;48.112;11.662;2023-03-01T16:38:22;16.67;;;11.60;;
31378;SDS011;61664;48.112;11.662;2023-03-01T16:40:49;16.38;;;11.23;;
31378;SDS011;61664;48.112;11.662;2023-03-01T16:43:18;15.73;;;12.68;;
31378;SDS011;61664;48.112;11.662;2023-03-01T16:45:45;16.85;;;12.10;;
31378;SDS011;61664;48.112;11.662;2023-03-01T16:48:13;16.20;;;11.70;;
31378;SDS011;61664;48.112;11.662;2023-03-01T16:50:40;17.52;;;12.32;;
31378;SDS011;61664;48.112;11.662;2023-03-01T16:53:07;15.13;;;12.02;;
31378;SDS011;61664;48.112;11.662;2023-03-01T16:55:34;15.32;;;11.40;;
31378;SDS011;61664;48.112;11.662;2023-03-01T16:58:02;23.05;;;13.80;;
31378;SDS011;61664;48.112;11.662;2023-03-01T17:00:30;23.33;;;15.20;;
31378;SDS011;61664;48.112;11.662;2023-03-01T17:02:57;24.67;;;14.15;;
31378;SDS011;61664;48.112;11.662;2023-03-01T17:09:00;24.60;;;15.77;;
31378;SDS011;61664;48.112;11.662;2023-03-01T17:11:27;25.85;;;16.02;;
31378;SDS011;61664;48.112;11.662;2023-03-01T17:13:54;25.63;;;16.52;;
31378;SDS011;61664;48.112;11.662;2023-03-01T17:16:21;28.00;;;18.42;;
31378;SDS011;61664;48.112;11.662;2023-03-01T17:18:48;29.13;;;18.77;;
31378;SDS011;61664;48.112;11.662;2023-03-01T17:21:15;27.95;;;18.17;;
31378;SDS011;61664;48.112;11.662;2023-03-01T17:23:43;25.23;;;17.77;;
31378;SDS011;61664;48.112;11.662;2023-03-01T17:26:12;32.90;;;19.42;;
31378;SDS011;61664;48.112;11.662;2023-03-01T17:28:39;30.10;;;17.25;;
31378;SDS011;61664;48.112;11.662;2023-03-01T17:31:06;26.48;;;17.60;;
31378;SDS011;61664;48.112;11.662;2023-03-01T17:33:33;27.38;;;17.02;;